Time;durP1;ratioP1;P1;durP2;ratioP2;P2;SDS_P1;SDS_P2;PMS_P1;PMS_P2;Temp;Humidity;BMP_temperature;BMP_pressure;BME280_temperature;BME280_humidity;BME280_pressure;Samples;Min_cycle;Max_cycle;Signal;HPM_P1;HPM_P2
2023/08/04 00:01:37;;;;;;;0.50;0.50;;;;;;;;;;10285905;28;20223;-73
2023/08/04 00:06:38;;;;;;;2.67;0.70;;;;;;;;;;10288642;28;20345;-73
2023/08/04 00:11:39;;;;;;;0.40;0.40;;;;;;;;;;10298605;28;20235;-73
2023/08/04 00:16:40;;;;;;;2.72;0.70;;;;;;;;;;10292851;28;20223;-72
2023/08/04 00:21:41;;;;;;;1.95;0.60;;;;;;;;;;10291805;28;20215;-73
2023/08/04 00:26:42;;;;;;;0.50;0.50;;;;;;;;;;10284829;28;21597;-74
2023/08/04 00:31:44;;;;;;;0.40;0.40;;;;;;;;;;10274922;28;20237;-72
2023/08/04 00:36:46;;;;;;;3.70;0.95;;;;;;;;;;10282133;28;20251;-72
2023/08/04 00:41:47;;;;;;;1.42;0.70;;;;;;;;;;10274128;28;22820;-73
2023/08/04 00:46:48;;;;;;;4.88;0.50;;;;;;;;;;10273351;28;20229;-73
2023/08/04 00:51:50;;;;;;;2.05;0.98;;;;;;;;;;10274977;28;20681;-73
2023/08/04 00:56:53;;;;;;;0.73;0.68;;;;;;;;;;10279189;28;20211;-74
2023/08/04 01:01:54;;;;;;;3.50;0.90;;;;;;;;;;10259878;28;20318;-74
2023/08/04 01:07:08;;;;;;;0.50;0.43;;;;;;;;;;10278907;28;21835;-73
2023/08/04 01:12:14;;;;;;;0.70;0.70;;;;;;;;;;10277814;28;20373;-71
2023/08/04 01:17:22;;;;;;;0.50;0.50;;;;;;;;;;10285059;28;20215;-75
2023/08/04 01:22:23;;;;;;;0.90;0.80;;;;;;;;;;10282864;28;20226;-74
2023/08/04 01:27:42;;;;;;;3.30;1.00;;;;;;;;;;10293038;28;20223;-73
2023/08/04 01:32:43;;;;;;;0.95;0.50;;;;;;;;;;10285080;28;20227;-74
2023/08/04 01:37:45;;;;;;;2.28;1.02;;;;;;;;;;10284515;28;20357;-73
2023/08/04 01:42:46;;;;;;;0.80;0.77;;;;;;;;;;10281483;28;20225;-74
2023/08/04 01:47:48;;;;;;;1.52;1.15;;;;;;;;;;10280240;28;20222;-71
2023/08/04 01:52:49;;;;;;;0.80;0.80;;;;;;;;;;10281811;28;20321;-75
2023/08/04 01:57:50;;;;;;;4.75;1.27;;;;;;;;;;10274104;28;20219;-73
2023/08/04 02:02:51;;;;;;;0.65;0.65;;;;;;;;;;10272216;28;20307;-73
2023/08/04 02:07:52;;;;;;;1.23;1.08;;;;;;;;;;10278842;28;20222;-72
2023/08/04 02:12:54;;;;;;;0.80;0.80;;;;;;;;;;10277675;28;20244;-74
2023/08/04 02:17:55;;;;;;;1.13;0.95;;;;;;;;;;10255521;28;20231;-74
2023/08/04 02:22:56;;;;;;;1.27;0.98;;;;;;;;;;10276568;28;20219;-73
2023/08/04 02:27:57;;;;;;;0.93;0.93;;;;;;;;;;10272004;28;20320;-73
2023/08/04 02:32:58;;;;;;;0.77;0.75;;;;;;;;;;10280087;28;20233;-75
2023/08/04 02:37:59;;;;;;;2.47;0.90;;;;;;;;;;10282085;28;20226;-73
2023/08/04 02:43:00;;;;;;;0.80;0.80;;;;;;;;;;10271693;28;20491;-73
2023/08/04 02:48:01;;;;;;;0.60;0.60;;;;;;;;;;10273937;28;20226;-74
2023/08/04 02:53:03;;;;;;;3.30;1.17;;;;;;;;;;10282134;28;20226;-75
2023/08/04 02:58:04;;;;;;;0.60;0.60;;;;;;;;;;10268677;28;20234;-73
2023/08/04 03:03:05;;;;;;;1.75;0.80;;;;;;;;;;10276471;28;20218;-76
2023/08/04 03:08:06;;;;;;;0.77;0.77;;;;;;;;;;10274993;28;20223;-74
2023/08/04 03:13:08;;;;;;;2.20;1.10;;;;;;;;;;10269012;28;20239;-73
2023/08/04 03:18:09;;;;;;;1.17;0.73;;;;;;;;;;10284388;28;20637;-75
2023/08/04 03:23:10;;;;;;;6.22;1.10;;;;;;;;;;10282891;28;20222;-72
2023/08/04 03:28:12;;;;;;;0.70;0.70;;;;;;;;;;10286058;28;20215;-73
2023/08/04 03:33:13;;;;;;;1.15;1.00;;;;;;;;;;10272242;28;20238;-75
2023/08/04 03:38:14;;;;;;;2.47;0.77;;;;;;;;;;10280570;28;20223;-72
2023/08/04 03:43:15;;;;;;;1.27;0.88;;;;;;;;;;10281626;28;20219;-74
2023/08/04 03:48:16;;;;;;;1.02;1.02;;;;;;;;;;10282717;28;21197;-73
2023/08/04 03:53:17;;;;;;;1.13;1.13;;;;;;;;;;10280441;28;20219;-74
2023/08/04 03:58:18;;;;;;;1.60;1.05;;;;;;;;;;10277317;28;20250;-73
2023/08/04 04:03:19;;;;;;;7.00;1.13;;;;;;;;;;10260384;28;21175;-74
2023/08/04 04:08:20;;;;;;;0.75;0.75;;;;;;;;;;10276902;28;20222;-74
2023/08/04 04:13:22;;;;;;;1.05;0.75;;;;;;;;;;10256504;28;20262;-75
2023/08/04 04:18:23;;;;;;;0.60;0.60;;;;;;;;;;10272479;28;20342;-75
2023/08/04 04:23:24;;;;;;;1.75;1.02;;;;;;;;;;10259422;28;20404;-76
2023/08/04 04:28:25;;;;;;;3.25;1.00;;;;;;;;;;10274745;28;20484;-74
2023/08/04 04:33:26;;;;;;;3.75;1.40;;;;;;;;;;10270402;28;20249;-74
2023/08/04 04:38:28;;;;;;;2.55;0.85;;;;;;;;;;10264570;28;20226;-73
2023/08/04 04:43:30;;;;;;;0.70;0.70;;;;;;;;;;10265823;28;20223;-74
2023/08/04 04:48:31;;;;;;;0.93;0.82;;;;;;;;;;10270253;28;21091;-74
2023/08/04 04:53:32;;;;;;;4.57;1.10;;;;;;;;;;10266230;28;20728;-74
2023/08/04 04:58:33;;;;;;;1.05;1.05;;;;;;;;;;10272870;28;20346;-74
2023/08/04 05:03:34;;;;;;;0.85;0.85;;;;;;;;;;10260704;28;20220;-74
2023/08/04 05:08:35;;;;;;;1.15;1.15;;;;;;;;;;10271716;28;20219;-73
2023/08/04 05:13:36;;;;;;;0.75;0.75;;;;;;;;;;10270902;28;22761;-74
2023/08/04 05:18:37;;;;;;;2.80;0.90;;;;;;;;;;10278618;28;20226;-74
2023/08/04 05:23:38;;;;;;;1.98;1.02;;;;;;;;;;10279434;28;20238;-74
2023/08/04 05:28:39;;;;;;;1.55;0.93;;;;;;;;;;10272632;28;20861;-73
2023/08/04 05:33:41;;;;;;;1.02;0.80;;;;;;;;;;10269250;28;20647;-74
2023/08/04 05:38:44;;;;;;;0.57;0.57;;;;;;;;;;10280845;28;23458;-75
2023/08/04 05:43:45;;;;;;;0.77;0.77;;;;;;;;;;10271206;28;20215;-74
2023/08/04 05:48:46;;;;;;;5.15;1.23;;;;;;;;;;10269191;28;20282;-73
2023/08/04 05:53:47;;;;;;;2.70;1.88;;;;;;;;;;10286772;28;20222;-76
2023/08/04 05:58:48;;;;;;;6.30;1.38;;;;;;;;;;10277849;28;20220;-72
2023/08/04 06:03:49;;;;;;;1.45;1.23;;;;;;;;;;10289278;28;20605;-72
2023/08/04 06:08:50;;;;;;;0.57;0.57;;;;;;;;;;10283551;28;20223;-74
2023/08/04 06:13:51;;;;;;;2.95;1.05;;;;;;;;;;10281739;28;21850;-74
2023/08/04 06:18:52;;;;;;;1.15;1.15;;;;;;;;;;10280745;28;20456;-76
2023/08/04 06:23:54;;;;;;;1.00;1.00;;;;;;;;;;10287633;28;21047;-75
2023/08/04 06:28:55;;;;;;;1.42;0.80;;;;;;;;;;10278449;28;21038;-74
2023/08/04 06:33:56;;;;;;;2.10;1.10;;;;;;;;;;10276880;28;20219;-75
2023/08/04 06:38:57;;;;;;;1.92;0.82;;;;;;;;;;10285520;28;20290;-76
2023/08/04 06:43:58;;;;;;;2.78;0.95;;;;;;;;;;10286197;28;20214;-75
2023/08/04 06:49:00;;;;;;;3.13;0.90;;;;;;;;;;10294902;28;20268;-75
2023/08/04 06:54:01;;;;;;;1.35;0.40;;;;;;;;;;10293015;28;20632;-77
2023/08/04 06:59:02;;;;;;;2.00;0.73;;;;;;;;;;10289272;28;20705;-77
2023/08/04 07:04:03;;;;;;;0.90;0.90;;;;;;;;;;10279790;28;20242;-76
2023/08/04 07:09:04;;;;;;;0.45;0.45;;;;;;;;;;10277929;28;20332;-77
2023/08/04 07:14:05;;;;;;;2.15;0.70;;;;;;;;;;10285408;28;20910;-75
2023/08/04 07:19:06;;;;;;;3.92;0.80;;;;;;;;;;10279473;28;21077;-76
2023/08/04 07:24:08;;;;;;;0.60;0.60;;;;;;;;;;10281857;28;20210;-76
2023/08/04 07:29:09;;;;;;;3.22;0.40;;;;;;;;;;10276025;28;20211;-75
2023/08/04 07:34:10;;;;;;;0.45;0.45;;;;;;;;;;10264521;28;21531;-76
2023/08/04 07:39:11;;;;;;;0.73;0.40;;;;;;;;;;10288168;28;20227;-76
2023/08/04 07:44:12;;;;;;;1.00;0.70;;;;;;;;;;10277606;28;20217;-74
2023/08/04 07:49:13;;;;;;;0.40;0.40;;;;;;;;;;10284011;28;20320;-74
2023/08/04 07:54:14;;;;;;;1.65;0.40;;;;;;;;;;10257007;28;20255;-74
2023/08/04 07:59:15;;;;;;;3.30;0.63;;;;;;;;;;10275213;28;20226;-72
2023/08/04 08:04:16;;;;;;;0.60;0.60;;;;;;;;;;10286735;28;20244;-74
2023/08/04 08:09:17;;;;;;;2.90;0.40;;;;;;;;;;10291776;28;22436;-73
2023/08/04 08:14:19;;;;;;;0.82;0.50;;;;;;;;;;10217917;28;20649;-73
2023/08/04 08:19:20;;;;;;;0.40;0.40;;;;;;;;;;10207412;28;20247;-74
2023/08/04 08:24:21;;;;;;;1.85;0.50;;;;;;;;;;10214111;28;20216;-72
2023/08/04 08:29:23;;;;;;;3.30;0.98;;;;;;;;;;10212790;28;20233;-76
2023/08/04 08:34:25;;;;;;;1.45;0.50;;;;;;;;;;10224283;28;20390;-75
2023/08/04 08:39:26;;;;;;;0.65;0.65;;;;;;;;;;10214426;28;20708;-74
2023/08/04 08:44:27;;;;;;;0.50;0.50;;;;;;;;;;10218380;28;20219;-74
2023/08/04 08:49:28;;;;;;;0.93;0.40;;;;;;;;;;10217151;28;22306;-75
2023/08/04 08:54:30;;;;;;;0.30;0.30;;;;;;;;;;10206405;28;21289;-76
2023/08/04 08:59:31;;;;;;;0.30;0.30;;;;;;;;;;10208680;28;20235;-74
2023/08/04 09:04:37;;;;;;;0.40;0.40;;;;;;;;;;10208955;28;20223;-74
2023/08/04 09:09:39;;;;;;;1.08;0.30;;;;;;;;;;10201104;28;20228;-75
2023/08/04 09:14:49;;;;;;;1.70;0.85;;;;;;;;;;10267103;28;20235;-74
2023/08/04 09:19:50;;;;;;;0.85;0.40;;;;;;;;;;10290143;28;20219;-76
2023/08/04 09:25:10;;;;;;;1.35;0.30;;;;;;;;;;10286272;28;20845;-73
2023/08/04 09:30:11;;;;;;;1.20;0.40;;;;;;;;;;10291808;28;20268;-75
2023/08/04 09:35:12;;;;;;;0.40;0.32;;;;;;;;;;10304870;28;22167;-76
2023/08/04 09:40:15;;;;;;;0.30;0.30;;;;;;;;;;10291703;28;20258;-77
2023/08/04 09:45:17;;;;;;;0.43;0.43;;;;;;;;;;10291285;28;20551;-77
2023/08/04 09:50:18;;;;;;;0.30;0.30;;;;;;;;;;10288151;28;20623;-74
2023/08/04 09:55:20;;;;;;;0.77;0.47;;;;;;;;;;10287347;28;20637;-76
2023/08/04 10:00:21;;;;;;;2.38;0.32;;;;;;;;;;10290028;28;20213;-74
2023/08/04 10:05:22;;;;;;;2.28;0.50;;;;;;;;;;10275065;28;20223;-75
2023/08/04 10:10:23;;;;;;;0.98;0.35;;;;;;;;;;10278898;28;20752;-76
2023/08/04 10:15:25;;;;;;;1.98;0.38;;;;;;;;;;10289000;28;20231;-73
2023/08/04 10:20:27;;;;;;;0.45;0.45;;;;;;;;;;10299536;28;20708;-77
2023/08/04 10:25:28;;;;;;;0.30;0.30;;;;;;;;;;10298404;28;20308;-75
2023/08/04 10:30:29;;;;;;;2.13;0.40;;;;;;;;;;10284487;28;20223;-77
2023/08/04 10:35:30;;;;;;;0.20;0.20;;;;;;;;;;10275522;28;20222;-77
2023/08/04 10:40:32;;;;;;;0.80;0.30;;;;;;;;;;10288421;28;20270;-74
2023/08/04 10:45:54;;;;;;;0.50;0.50;;;;;;;;;;10287782;28;21509;-75
2023/08/04 10:50:55;;;;;;;0.30;0.30;;;;;;;;;;10293180;28;20238;-75
2023/08/04 10:55:57;;;;;;;0.52;0.28;;;;;;;;;;10282999;28;20313;-74
2023/08/04 11:00:58;;;;;;;0.57;0.30;;;;;;;;;;10294052;28;20219;-76
2023/08/04 11:06:00;;;;;;;1.15;0.20;;;;;;;;;;10286591;28;20226;-77
2023/08/04 11:11:01;;;;;;;0.80;0.47;;;;;;;;;;10282206;28;20281;-78
2023/08/04 11:16:02;;;;;;;0.38;0.38;;;;;;;;;;10298602;28;20227;-76
2023/08/04 11:21:03;;;;;;;0.30;0.30;;;;;;;;;;10297181;28;20252;-75
2023/08/04 11:26:05;;;;;;;0.47;0.47;;;;;;;;;;10279447;28;20218;-76
2023/08/04 11:31:06;;;;;;;0.57;0.22;;;;;;;;;;10286350;28;20253;-78
2023/08/04 11:36:07;;;;;;;0.40;0.40;;;;;;;;;;10253639;28;20218;-78
2023/08/04 11:41:10;;;;;;;0.40;0.40;;;;;;;;;;10281665;28;20211;-75
2023/08/04 11:46:11;;;;;;;1.40;0.43;;;;;;;;;;10284116;28;20215;-76
2023/08/04 11:51:12;;;;;;;2.13;0.50;;;;;;;;;;10280181;28;20233;-76
2023/08/04 11:56:13;;;;;;;0.30;0.30;;;;;;;;;;10281370;28;20230;-77
2023/08/04 12:01:28;;;;;;;0.30;0.30;;;;;;;;;;10282695;28;20705;-77
2023/08/04 12:06:29;;;;;;;0.30;0.30;;;;;;;;;;10282504;28;22072;-78
2023/08/04 12:11:30;;;;;;;1.30;0.40;;;;;;;;;;10286132;28;20231;-76
2023/08/04 12:16:32;;;;;;;0.65;0.30;;;;;;;;;;10290266;28;20225;-76
2023/08/04 12:21:33;;;;;;;1.00;0.30;;;;;;;;;;10290605;28;20253;-76
2023/08/04 12:26:34;;;;;;;0.30;0.30;;;;;;;;;;10280520;28;20329;-77
2023/08/04 12:31:35;;;;;;;0.60;0.40;;;;;;;;;;10263335;28;20972;-74
2023/08/04 12:36:36;;;;;;;0.40;0.40;;;;;;;;;;10281412;28;20337;-76
2023/08/04 12:41:37;;;;;;;0.40;0.40;;;;;;;;;;10284473;28;20712;-78
2023/08/04 12:46:38;;;;;;;0.60;0.50;;;;;;;;;;10294157;28;20222;-76
2023/08/04 12:51:39;;;;;;;0.43;0.40;;;;;;;;;;10289407;28;21576;-80
2023/08/04 12:56:40;;;;;;;0.40;0.40;;;;;;;;;;10296442;28;20376;-77
2023/08/04 13:01:41;;;;;;;2.72;0.50;;;;;;;;;;10276650;28;20237;-76
2023/08/04 13:06:42;;;;;;;0.40;0.40;;;;;;;;;;10290993;28;20219;-76
2023/08/04 13:11:43;;;;;;;0.40;0.40;;;;;;;;;;10290955;28;21677;-78
2023/08/04 13:16:46;;;;;;;0.30;0.30;;;;;;;;;;10289634;28;20227;-77
2023/08/04 13:21:47;;;;;;;0.95;0.60;;;;;;;;;;10285591;28;20225;-79
2023/08/04 13:26:48;;;;;;;0.50;0.50;;;;;;;;;;10282477;28;20219;-76
2023/08/04 13:31:49;;;;;;;1.63;0.50;;;;;;;;;;10284638;28;20301;-77
2023/08/04 13:36:50;;;;;;;0.70;0.70;;;;;;;;;;10291788;28;20223;-79
2023/08/04 13:41:51;;;;;;;0.28;0.28;;;;;;;;;;10291578;28;20257;-78
2023/08/04 13:46:52;;;;;;;0.57;0.57;;;;;;;;;;10290166;28;20799;-78
2023/08/04 13:51:53;;;;;;;0.30;0.30;;;;;;;;;;10276312;28;21561;-78
2023/08/04 13:56:54;;;;;;;0.45;0.45;;;;;;;;;;10285058;28;20219;-78
2023/08/04 14:01:56;;;;;;;0.63;0.30;;;;;;;;;;10289430;28;20214;-78
2023/08/04 14:06:57;;;;;;;0.38;0.38;;;;;;;;;;10267191;28;20211;-79
2023/08/04 14:11:59;;;;;;;0.32;0.32;;;;;;;;;;10289480;28;20234;-78
2023/08/04 14:17:00;;;;;;;0.47;0.47;;;;;;;;;;10270706;28;20288;-78
2023/08/04 14:22:01;;;;;;;0.30;0.30;;;;;;;;;;10274013;28;20227;-75
2023/08/04 14:27:02;;;;;;;0.50;0.50;;;;;;;;;;10284896;28;20325;-77
2023/08/04 14:32:04;;;;;;;0.30;0.30;;;;;;;;;;10276147;28;20272;-78
2023/08/04 14:37:05;;;;;;;0.98;0.50;;;;;;;;;;10284860;28;20214;-72
2023/08/04 14:42:06;;;;;;;0.60;0.60;;;;;;;;;;10259728;28;20226;-77
2023/08/04 14:47:07;;;;;;;0.85;0.40;;;;;;;;;;10266940;28;20266;-76
2023/08/04 14:52:09;;;;;;;1.58;0.50;;;;;;;;;;10249684;28;20257;-76
2023/08/04 14:57:10;;;;;;;0.93;0.40;;;;;;;;;;10274336;28;20326;-75
2023/08/04 15:02:11;;;;;;;0.47;0.47;;;;;;;;;;10280624;28;21034;-76
2023/08/04 15:07:12;;;;;;;0.85;0.50;;;;;;;;;;10269530;28;20684;-77
2023/08/04 15:12:13;;;;;;;0.70;0.65;;;;;;;;;;10271487;28;20348;-74
2023/08/04 15:17:14;;;;;;;0.35;0.35;;;;;;;;;;10278745;28;20311;-75
2023/08/04 15:22:15;;;;;;;0.30;0.30;;;;;;;;;;10283251;28;20268;-77
2023/08/04 15:27:17;;;;;;;4.45;0.47;;;;;;;;;;10283934;28;20626;-78
2023/08/04 15:32:18;;;;;;;0.65;0.30;;;;;;;;;;10277782;28;20892;-78
2023/08/04 15:37:19;;;;;;;1.30;0.30;;;;;;;;;;10277691;28;20318;-78
2023/08/04 15:42:20;;;;;;;0.30;0.30;;;;;;;;;;10283285;28;22582;-77
2023/08/04 15:47:21;;;;;;;0.30;0.30;;;;;;;;;;10285341;28;20272;-76
2023/08/04 15:52:22;;;;;;;0.65;0.30;;;;;;;;;;10282762;28;20709;-78
2023/08/04 15:57:23;;;;;;;0.30;0.30;;;;;;;;;;10273471;28;20231;-79
2023/08/04 16:02:24;;;;;;;0.30;0.30;;;;;;;;;;10284510;28;20219;-76
2023/08/04 16:07:25;;;;;;;0.20;0.20;;;;;;;;;;10287020;28;23045;-77
2023/08/04 16:12:26;;;;;;;0.40;0.40;;;;;;;;;;10277348;28;20249;-79
2023/08/04 16:17:28;;;;;;;0.30;0.30;;;;;;;;;;10279771;28;20223;-78
2023/08/04 16:22:29;;;;;;;0.30;0.30;;;;;;;;;;10281465;28;20219;-75
2023/08/04 16:27:30;;;;;;;0.43;0.43;;;;;;;;;;10278285;28;20235;-77
2023/08/04 16:32:31;;;;;;;1.23;0.40;;;;;;;;;;10285551;28;20231;-74
2023/08/04 16:37:32;;;;;;;1.85;0.32;;;;;;;;;;10279114;28;22988;-76
2023/08/04 16:42:33;;;;;;;0.40;0.40;;;;;;;;;;10262812;28;20218;-74
2023/08/04 16:47:34;;;;;;;0.30;0.30;;;;;;;;;;10272414;28;20905;-79
2023/08/04 16:52:36;;;;;;;0.50;0.50;;;;;;;;;;10276615;28;20223;-77
2023/08/04 16:57:38;;;;;;;0.30;0.30;;;;;;;;;;10282752;28;20218;-77
2023/08/04 17:02:39;;;;;;;0.38;0.32;;;;;;;;;;10272634;28;20222;-78
2023/08/04 17:07:40;;;;;;;0.30;0.30;;;;;;;;;;10289050;28;23386;-74
2023/08/04 17:12:41;;;;;;;0.30;0.30;;;;;;;;;;10293945;28;20265;-73
2023/08/04 17:17:42;;;;;;;0.30;0.30;;;;;;;;;;10305755;28;20227;-74
2023/08/04 17:22:43;;;;;;;0.40;0.40;;;;;;;;;;10277256;28;20341;-75
2023/08/04 17:27:44;;;;;;;0.30;0.30;;;;;;;;;;10288052;28;20792;-74
2023/08/04 17:32:45;;;;;;;0.95;0.22;;;;;;;;;;10283439;28;20715;-74
2023/08/04 17:37:46;;;;;;;0.77;0.40;;;;;;;;;;10286057;28;20215;-76
2023/08/04 17:42:47;;;;;;;0.85;0.20;;;;;;;;;;10291891;28;21080;-76
2023/08/04 17:47:49;;;;;;;0.22;0.22;;;;;;;;;;10273708;28;20227;-77
2023/08/04 17:52:51;;;;;;;0.25;0.20;;;;;;;;;;10281323;28;20223;-73
2023/08/04 17:57:52;;;;;;;0.43;0.20;;;;;;;;;;10283406;28;20223;-74
2023/08/04 18:02:53;;;;;;;0.57;0.20;;;;;;;;;;10277732;28;21127;-72
2023/08/04 18:07:54;;;;;;;0.20;0.20;;;;;;;;;;10283477;28;20262;-75
2023/08/04 18:12:55;;;;;;;0.50;0.50;;;;;;;;;;10285090;28;20238;-74
2023/08/04 18:17:56;;;;;;;0.65;0.20;;;;;;;;;;10280482;28;21120;-76
2023/08/04 18:22:57;;;;;;;0.10;0.10;;;;;;;;;;10278999;28;20222;-76
2023/08/04 18:27:59;;;;;;;0.45;0.30;;;;;;;;;;10260550;28;21182;-74
2023/08/04 18:33:00;;;;;;;0.20;0.20;;;;;;;;;;10270811;28;20220;-76
2023/08/04 18:38:01;;;;;;;0.60;0.20;;;;;;;;;;10264550;28;20735;-78
2023/08/04 18:43:02;;;;;;;1.50;0.30;;;;;;;;;;10274945;28;21072;-77
2023/08/04 18:48:03;;;;;;;0.20;0.20;;;;;;;;;;10260244;28;20314;-77
2023/08/04 18:53:05;;;;;;;0.73;0.30;;;;;;;;;;10277252;28;20231;-76
2023/08/04 18:58:06;;;;;;;0.30;0.30;;;;;;;;;;10280438;28;20312;-75
2023/08/04 19:03:07;;;;;;;0.30;0.30;;;;;;;;;;10272654;28;21152;-75
2023/08/04 19:08:08;;;;;;;0.45;0.30;;;;;;;;;;10272839;28;20284;-77
2023/08/04 19:13:09;;;;;;;0.57;0.30;;;;;;;;;;10278797;28;20266;-75
2023/08/04 19:18:10;;;;;;;0.47;0.30;;;;;;;;;;10277673;28;21060;-75
2023/08/04 19:23:11;;;;;;;0.20;0.20;;;;;;;;;;10279951;28;20219;-74
2023/08/04 19:28:12;;;;;;;0.22;0.22;;;;;;;;;;10278406;28;20222;-73
2023/08/04 19:33:13;;;;;;;0.35;0.30;;;;;;;;;;10275868;28;20616;-74
2023/08/04 19:38:14;;;;;;;2.10;0.55;;;;;;;;;;10268205;28;20257;-75
2023/08/04 19:43:15;;;;;;;0.30;0.30;;;;;;;;;;10271485;28;21477;-75
2023/08/04 19:48:16;;;;;;;0.40;0.20;;;;;;;;;;10285658;28;20227;-76
2023/08/04 19:53:17;;;;;;;0.30;0.30;;;;;;;;;;10260006;28;20223;-73
2023/08/04 19:58:18;;;;;;;1.08;0.30;;;;;;;;;;10285410;28;20230;-73
2023/08/04 20:03:20;;;;;;;0.30;0.30;;;;;;;;;;10282491;28;20707;-75
2023/08/04 20:08:21;;;;;;;0.40;0.40;;;;;;;;;;10272287;28;21271;-76
2023/08/04 20:13:22;;;;;;;0.75;0.30;;;;;;;;;;10291184;28;20254;-74
2023/08/04 20:18:23;;;;;;;0.47;0.47;;;;;;;;;;10284175;28;20689;-74
2023/08/04 20:23:24;;;;;;;0.30;0.30;;;;;;;;;;10284106;28;20218;-75
2023/08/04 20:28:25;;;;;;;1.25;0.40;;;;;;;;;;10287575;28;20226;-74
2023/08/04 20:33:26;;;;;;;0.50;0.50;;;;;;;;;;10286689;28;20369;-73
2023/08/04 20:38:28;;;;;;;0.80;0.80;;;;;;;;;;10283078;28;22733;-76
2023/08/04 20:43:30;;;;;;;2.05;1.63;;;;;;;;;;10301219;28;21409;-74
2023/08/04 20:48:31;;;;;;;2.80;1.13;;;;;;;;;;10298993;28;20324;-73
2023/08/04 20:53:33;;;;;;;2.63;2.40;;;;;;;;;;10288913;28;21209;-77
2023/08/04 20:58:37;;;;;;;3.05;1.75;;;;;;;;;;10291909;28;21013;-76
2023/08/04 21:03:41;;;;;;;0.38;0.38;;;;;;;;;;10295110;28;20224;-77
2023/08/04 21:08:42;;;;;;;0.40;0.40;;;;;;;;;;10291144;28;20392;-75
2023/08/04 21:13:43;;;;;;;1.88;1.27;;;;;;;;;;10288026;28;20325;-77
2023/08/04 21:18:44;;;;;;;1.25;1.05;;;;;;;;;;10292258;28;20727;-75
2023/08/04 21:23:45;;;;;;;0.50;0.50;;;;;;;;;;10285899;28;20218;-75
2023/08/04 21:28:46;;;;;;;1.60;0.50;;;;;;;;;;10284053;28;20224;-75
2023/08/04 21:33:48;;;;;;;3.80;3.03;;;;;;;;;;10282857;28;20235;-75
2023/08/04 21:38:49;;;;;;;5.18;3.35;;;;;;;;;;10287034;28;21824;-75
2023/08/04 21:43:50;;;;;;;3.30;2.58;;;;;;;;;;10283369;28;20308;-74
2023/08/04 21:48:51;;;;;;;2.85;1.92;;;;;;;;;;10291482;28;20444;-77
2023/08/04 21:53:52;;;;;;;1.58;1.02;;;;;;;;;;10289498;28;20280;-76
2023/08/04 21:58:53;;;;;;;0.40;0.40;;;;;;;;;;10294949;28;20326;-76
2023/08/04 22:03:54;;;;;;;0.30;0.30;;;;;;;;;;10292602;28;20225;-75
2023/08/04 22:08:56;;;;;;;0.47;0.47;;;;;;;;;;10276368;28;20281;-73
2023/08/04 22:13:57;;;;;;;2.53;0.50;;;;;;;;;;10295282;28;20235;-74
2023/08/04 22:18:58;;;;;;;0.32;0.32;;;;;;;;;;10296782;28;20219;-74
2023/08/04 22:23:59;;;;;;;0.45;0.40;;;;;;;;;;10302319;28;20448;-73
2023/08/04 22:29:01;;;;;;;4.32;1.73;;;;;;;;;;10295875;28;20219;-75
2023/08/04 22:34:02;;;;;;;0.50;0.50;;;;;;;;;;10283158;28;20222;-75
2023/08/04 22:39:04;;;;;;;2.72;0.30;;;;;;;;;;10294450;28;20230;-75
2023/08/04 22:44:05;;;;;;;0.28;0.28;;;;;;;;;;10283618;28;20275;-73
2023/08/04 22:49:06;;;;;;;0.20;0.20;;;;;;;;;;10283810;28;20291;-73
2023/08/04 22:54:07;;;;;;;0.28;0.28;;;;;;;;;;10292508;28;20300;-73
2023/08/04 22:59:08;;;;;;;0.20;0.20;;;;;;;;;;10296259;28;20961;-76
2023/08/04 23:04:09;;;;;;;0.30;0.30;;;;;;;;;;10293103;28;20215;-75
2023/08/04 23:09:10;;;;;;;0.30;0.30;;;;;;;;;;10301193;28;20219;-74
2023/08/04 23:14:11;;;;;;;0.30;0.30;;;;;;;;;;10298100;28;21427;-75
2023/08/04 23:19:12;;;;;;;0.40;0.40;;;;;;;;;;10299803;28;20335;-74
2023/08/04 23:24:13;;;;;;;0.38;0.38;;;;;;;;;;10293944;28;21338;-74
2023/08/04 23:29:14;;;;;;;0.30;0.30;;;;;;;;;;10293890;28;20794;-76
2023/08/04 23:34:15;;;;;;;0.52;0.30;;;;;;;;;;10297395;28;20313;-72
2023/08/04 23:39:17;;;;;;;0.40;0.40;;;;;;;;;;10287541;28;20230;-74
2023/08/04 23:44:18;;;;;;;0.52;0.30;;;;;;;;;;10296645;28;20219;-74
2023/08/04 23:49:19;;;;;;;0.30;0.30;;;;;;;;;;10296582;28;20795;-76
2023/08/04 23:54:20;;;;;;;0.30;0.30;;;;;;;;;;10293586;28;20284;-75
2023/08/04 23:59:21;;;;;;;2.08;0.32;;;;;;;;;;10288770;28;20249;-73
